Terminal Aerodrome Forecast
Issued by NWS

Home | Current Version | Previous Version | Text Only | Print | Product List | Glossary On
Versions: 1 2 3 4 5 6 7 8 9 10 11 12 13 14 15
000
FTUS43 KBIS 191100
TAFJMS
TAF
KJMS 191138Z 1912/2012 17010KT 4SM BR OVC004
      TEMPO 1912/1916 2SM BR OVC003
     FM191600 17006KT P6SM FEW003 SCT100
      TEMPO 1916/1919 2SM BR SCT003
     FM200300 18006KT P6SM SCT100=

USA.gov is the U.S. government's official web portal to all federal, state and local government web resources and services.